createdAt,value
2022-10-31T00:01:19.200Z,100263.53
2022-10-31T00:03:46.653Z,100263.66
2022-10-31T00:06:13.593Z,100268.97
2022-10-31T00:08:40.564Z,100270.75
2022-10-31T00:11:11.549Z,100263.78
2022-10-31T00:13:38.678Z,100266.50
2022-10-31T00:16:06.157Z,100271.94
2022-10-31T00:18:33.058Z,100279.03
2022-10-31T00:21:04.587Z,100282.75
2022-10-31T00:23:31.544Z,100281.06
2022-10-31T00:26:03.087Z,100288.16
2022-10-31T00:28:31.742Z,100291.78
2022-10-31T00:31:07.389Z,100288.28
2022-10-31T00:33:35.932Z,100299.00
2022-10-31T00:36:02.859Z,100300.03
2022-10-31T00:38:30.094Z,100293.91
2022-10-31T00:40:56.981Z,100301.00
2022-10-31T00:43:24.735Z,100292.19
2022-10-31T00:45:52.112Z,100295.03
2022-10-31T00:48:18.936Z,100304.81
2022-10-31T00:50:46.386Z,100319.75
2022-10-31T00:53:13.253Z,100313.81
2022-10-31T00:55:40.145Z,100313.94
2022-10-31T00:58:07.132Z,100307.91
2022-10-31T01:00:34.182Z,100315.84
2022-10-31T01:03:01.333Z,100321.97
2022-10-31T01:05:28.610Z,100322.22
2022-10-31T01:07:55.510Z,100325.69
2022-10-31T01:10:22.688Z,100316.13
2022-10-31T01:12:50.410Z,100327.78
2022-10-31T01:15:22.585Z,100323.34
2022-10-31T01:17:50.092Z,100320.81
2022-10-31T01:20:18.573Z,100317.19
2022-10-31T01:22:45.778Z,100318.16
2022-10-31T01:25:12.805Z,100329.50
2022-10-31T01:27:39.748Z,100314.66
2022-10-31T01:30:07.152Z,100310.41
2022-10-31T01:32:34.037Z,100324.53
2022-10-31T01:35:00.954Z,100336.06
2022-10-31T01:37:27.845Z,100323.75
2022-10-31T01:39:54.696Z,100322.94
2022-10-31T01:42:23.668Z,100322.94
2022-10-31T01:44:57.922Z,100317.19
2022-10-31T01:47:36.357Z,100316.03
2022-10-31T01:50:07.741Z,100321.34
2022-10-31T01:52:40.808Z,100325.78
2022-10-31T01:55:07.788Z,100322.28
2022-10-31T01:57:37.316Z,100333.63
2022-10-31T02:00:09.233Z,100321.44
2022-10-31T02:02:36.900Z,100328.53
2022-10-31T02:05:08.191Z,100336.47
2022-10-31T02:07:47.112Z,100348.13
2022-10-31T02:10:14.212Z,100336.59
2022-10-31T02:12:42.387Z,100328.63
2022-10-31T02:15:10.488Z,100326.06
2022-10-31T02:17:37.345Z,100347.28
2022-10-31T02:20:22.845Z,100332.22
2022-10-31T02:23:08.010Z,100340.28
2022-10-31T02:25:59.371Z,100333.28
2022-10-31T02:28:44.643Z,100331.59
2022-10-31T02:31:14.224Z,100342.22
2022-10-31T02:33:48.209Z,100330.75
2022-10-31T02:36:33.552Z,100335.19
2022-10-31T02:39:32.386Z,100329.16
2022-10-31T02:42:02.133Z,100333.59
2022-10-31T02:44:41.052Z,100333.69
2022-10-31T02:47:15.044Z,100326.72
2022-10-31T02:49:46.763Z,100331.03
2022-10-31T02:52:34.737Z,100333.81
2022-10-31T02:55:26.486Z,100342.69
2022-10-31T02:57:58.637Z,100343.66
2022-10-31T03:00:26.151Z,100341.94
2022-10-31T03:03:14.813Z,100342.91
2022-10-31T03:06:10.280Z,100341.09
2022-10-31T03:08:43.721Z,100342.06
2022-10-31T03:11:11.236Z,100337.72
2022-10-31T03:13:49.994Z,100336.00
2022-10-31T03:16:46.806Z,100330.28
2022-10-31T03:19:36.684Z,100342.34
2022-10-31T03:22:05.999Z,100336.09
2022-10-31T03:24:37.027Z,100340.56
2022-10-31T03:27:06.819Z,100340.56
2022-10-31T03:29:38.132Z,100338.88
2022-10-31T03:32:11.072Z,100332.19
2022-10-31T03:34:41.123Z,100333.66
2022-10-31T03:37:12.080Z,100325.81
2022-10-31T03:39:42.125Z,100324.03
2022-10-31T03:42:27.129Z,100321.47
2022-10-31T03:45:20.038Z,100325.06
2022-10-31T03:47:47.005Z,100313.63
2022-10-31T03:50:17.074Z,100319.88
2022-10-31T03:52:55.277Z,100319.00
2022-10-31T03:55:53.869Z,100306.63
2022-10-31T03:58:27.188Z,100308.41
2022-10-31T04:00:57.016Z,100312.88
2022-10-31T04:03:28.001Z,100301.84
2022-10-31T04:05:58.392Z,100299.72
2022-10-31T04:08:29.689Z,100300.59
2022-10-31T04:10:59.025Z,100305.16
2022-10-31T04:13:30.333Z,100299.72
2022-10-31T04:15:57.714Z,100290.00
2022-10-31T04:18:25.394Z,100288.28
2022-10-31T04:21:05.326Z,100291.91
2022-10-31T04:23:33.542Z,100298.13
2022-10-31T04:26:00.473Z,100296.34
2022-10-31T04:28:27.449Z,100302.59
2022-10-31T04:30:54.630Z,100311.38
2022-10-31T04:33:21.735Z,100304.56
2022-10-31T04:35:48.628Z,100308.00
2022-10-31T04:38:15.554Z,100301.00
2022-10-31T04:40:42.426Z,100301.09
2022-10-31T04:43:09.395Z,100302.78
2022-10-31T04:45:36.243Z,100296.53
2022-10-31T04:48:03.364Z,100301.00
2022-10-31T04:50:30.564Z,100298.34
2022-10-31T04:52:57.507Z,100297.59
2022-10-31T04:55:24.339Z,100294.09
2022-10-31T04:57:52.045Z,100288.91
2022-10-31T05:00:21.180Z,100294.22
2022-10-31T05:02:49.424Z,100293.34
2022-10-31T05:05:17.802Z,100281.91
2022-10-31T05:07:46.793Z,100283.69
2022-10-31T05:10:15.840Z,100285.59
2022-10-31T05:12:50.969Z,100290.78
2022-10-31T05:15:19.159Z,100291.66
2022-10-31T05:17:46.270Z,100292.50
2022-10-31T05:20:15.235Z,100301.38
2022-10-31T05:22:50.505Z,100298.00
2022-10-31T05:25:19.280Z,100297.06
2022-10-31T05:27:48.209Z,100290.78
2022-10-31T05:30:18.032Z,100279.66
2022-10-31T05:32:47.127Z,100276.81
2022-10-31T05:35:16.871Z,100269.84
2022-10-31T05:37:43.849Z,100275.22
2022-10-31T05:40:13.428Z,100276.06
2022-10-31T05:42:41.695Z,100277.00
2022-10-31T05:45:13.559Z,100274.28
2022-10-31T05:47:40.413Z,100274.28
2022-10-31T05:50:08.429Z,100275.94
2022-10-31T05:52:35.329Z,100267.06
2022-10-31T05:55:02.300Z,100262.81
2022-10-31T05:57:30.321Z,100264.63
2022-10-31T05:59:57.162Z,100251.38
2022-10-31T06:02:24.013Z,100252.22
2022-10-31T06:04:51.037Z,100255.81
2022-10-31T06:07:18.027Z,100254.88
2022-10-31T06:09:44.901Z,100253.94
2022-10-31T06:12:11.785Z,100246.00
2022-10-31T06:14:38.674Z,100234.44
2022-10-31T06:17:05.535Z,100242.28
2022-10-31T06:19:32.417Z,100231.03
2022-10-31T06:21:59.237Z,100244.72
2022-10-31T06:24:26.103Z,100236.69
2022-10-31T06:26:52.995Z,100241.00
2022-10-31T06:29:19.965Z,100241.66
2022-10-31T06:31:46.787Z,100238.16
2022-10-31T06:34:13.661Z,100247.59
2022-10-31T06:36:40.509Z,100254.50
2022-10-31T06:39:07.511Z,100251.00
2022-10-31T06:41:34.411Z,100250.13
2022-10-31T06:44:04.991Z,100244.22
2022-10-31T06:46:35.263Z,100246.63
2022-10-31T06:49:02.136Z,100243.78
2022-10-31T06:51:28.997Z,100242.09
2022-10-31T06:53:55.872Z,100245.50
2022-10-31T06:56:22.751Z,100240.94
2022-10-31T06:58:49.610Z,100245.19
2022-10-31T07:01:16.638Z,100246.44
2022-10-31T07:03:43.686Z,100251.44
2022-10-31T07:06:10.621Z,100247.94
2022-10-31T07:08:37.645Z,100246.97
2022-10-31T07:11:04.557Z,100251.44
2022-10-31T07:13:31.447Z,100257.47
2022-10-31T07:16:03.743Z,100250.59
2022-10-31T07:18:31.094Z,100257.56
2022-10-31T07:20:58.112Z,100253.88
2022-10-31T07:23:25.045Z,100252.84
2022-10-31T07:25:57.418Z,100255.69
2022-10-31T07:28:24.663Z,100256.94
2022-10-31T07:30:53.252Z,100247.59
2022-10-31T07:33:20.542Z,100254.59
2022-10-31T07:35:47.666Z,100249.09
2022-10-31T07:38:15.825Z,100252.59
2022-10-31T07:40:43.579Z,100254.28
2022-10-31T07:43:14.590Z,100266.56
2022-10-31T07:45:41.976Z,100259.41
2022-10-31T07:48:08.907Z,100252.28
2022-10-31T07:50:36.179Z,100251.34
2022-10-31T07:53:09.131Z,100260.13
2022-10-31T07:55:36.720Z,100261.81
2022-10-31T07:58:06.354Z,100258.22
2022-10-31T08:00:35.972Z,100268.81
2022-10-31T08:03:08.594Z,100255.69
2022-10-31T08:05:36.736Z,100253.78
2022-10-31T08:08:05.189Z,100252.72
2022-10-31T08:10:32.857Z,100259.06
2022-10-31T08:13:09.215Z,100266.09
2022-10-31T08:15:39.257Z,100264.38
2022-10-31T08:18:07.210Z,100257.28
2022-10-31T08:20:34.653Z,100263.44
2022-10-31T08:23:04.395Z,100255.25
2022-10-31T08:25:37.199Z,100249.94
2022-10-31T08:28:06.641Z,100246.47
2022-10-31T08:30:36.133Z,100260.56
2022-10-31T08:33:15.241Z,100250.72
2022-10-31T08:35:42.772Z,100247.22
2022-10-31T08:38:12.085Z,100248.06
2022-10-31T08:40:39.583Z,100245.31
2022-10-31T08:43:11.829Z,100249.66
2022-10-31T08:45:39.271Z,100253.38
2022-10-31T08:48:10.400Z,100253.13
2022-10-31T08:50:37.969Z,100241.06
2022-10-31T08:53:19.311Z,100242.78
2022-10-31T08:55:47.666Z,100257.28
2022-10-31T08:58:20.104Z,100254.53
2022-10-31T09:00:49.319Z,100259.72
2022-10-31T09:03:20.671Z,100241.25
2022-10-31T09:05:48.145Z,100261.41
2022-10-31T09:08:16.995Z,100251.78
2022-10-31T09:10:45.462Z,100246.38
2022-10-31T09:13:21.217Z,100247.22
2022-10-31T09:15:50.160Z,100247.22
2022-10-31T09:18:20.086Z,100244.47
2022-10-31T09:20:48.860Z,100231.31
2022-10-31T09:23:21.456Z,100226.00
2022-10-31T09:25:50.889Z,100230.47
2022-10-31T09:28:21.727Z,100229.59
2022-10-31T09:30:50.666Z,100230.38
2022-10-31T09:33:18.178Z,100226.00
2022-10-31T09:35:45.290Z,100227.81
2022-10-31T09:38:16.354Z,100225.94
2022-10-31T09:41:03.705Z,100220.72
2022-10-31T09:43:39.618Z,100219.25
2022-10-31T09:46:16.679Z,100221.44
2022-10-31T09:49:08.027Z,100230.25
2022-10-31T09:51:53.044Z,100230.38
2022-10-31T09:54:41.040Z,100226.00
2022-10-31T09:57:14.366Z,100227.81
2022-10-31T09:59:43.199Z,100228.88
2022-10-31T10:02:25.833Z,100230.59
2022-10-31T10:05:03.331Z,100227.94
2022-10-31T10:07:50.922Z,100217.53
2022-10-31T10:10:59.393Z,100220.19
2022-10-31T10:13:32.641Z,100212.13
2022-10-31T10:16:13.988Z,100210.31
2022-10-31T10:18:55.783Z,100205.03
2022-10-31T10:21:31.554Z,100205.88
2022-10-31T10:24:19.975Z,100202.16
2022-10-31T10:27:05.843Z,100207.38
2022-10-31T10:29:43.989Z,100205.66
2022-10-31T10:32:19.191Z,100210.13
2022-10-31T10:34:55.069Z,100209.16
2022-10-31T10:37:29.540Z,100209.38
2022-10-31T10:40:07.765Z,100190.91
2022-10-31T10:42:54.660Z,100206.41
2022-10-31T10:45:40.082Z,100204.59
2022-10-31T10:48:11.651Z,100214.28
2022-10-31T10:50:47.987Z,100212.44
2022-10-31T10:53:36.902Z,100210.66
2022-10-31T10:56:10.435Z,100210.66
2022-10-31T10:58:38.662Z,100209.78
2022-10-31T11:04:04.307Z,100208.84
2022-10-31T11:06:31.433Z,100195.91
2022-10-31T11:08:58.418Z,100207.78
2022-10-31T11:11:29.424Z,100193.59
2022-10-31T11:14:04.593Z,100186.56
2022-10-31T11:16:41.301Z,100191.88
2022-10-31T11:19:08.810Z,100185.72
2022-10-31T11:21:36.078Z,100191.47
2022-10-31T11:24:12.913Z,100193.47
2022-10-31T11:26:41.526Z,100182.16
2022-10-31T11:29:27.496Z,100179.50
2022-10-31T11:31:56.481Z,100177.91
2022-10-31T11:34:37.971Z,100171.97
2022-10-31T11:37:19.578Z,100164.53
2022-10-31T11:39:54.609Z,100164.31
2022-10-31T11:42:28.950Z,100169.63
2022-10-31T11:44:57.184Z,100152.03
2022-10-31T11:47:30.040Z,100145.03
2022-10-31T11:49:58.993Z,100133.59
2022-10-31T11:52:29.083Z,100128.16
2022-10-31T11:54:57.117Z,100120.44
2022-10-31T11:57:28.297Z,100133.69
2022-10-31T11:59:56.243Z,100123.28
2022-10-31T12:02:23.720Z,100118.97
2022-10-31T12:05:14.498Z,100124.28
2022-10-31T12:07:41.693Z,100110.16
2022-10-31T12:10:13.424Z,100118.25
2022-10-31T12:13:12.679Z,100098.84
2022-10-31T12:15:44.087Z,100103.28
2022-10-31T12:18:32.976Z,100106.88
2022-10-31T12:21:34.278Z,100103.69
2022-10-31T12:24:07.655Z,100119.38
2022-10-31T12:27:17.802Z,100119.38
2022-10-31T12:29:50.847Z,100129.97
2022-10-31T12:32:45.677Z,100128.06
2022-10-31T12:35:29.241Z,100121.81
2022-10-31T12:38:14.903Z,100120.03
2022-10-31T12:41:00.580Z,100133.38
2022-10-31T12:44:12.073Z,100129.66
2022-10-31T12:46:56.577Z,100127.84
2022-10-31T12:49:59.706Z,100121.50
2022-10-31T12:52:53.788Z,100124.91
2022-10-31T12:55:42.302Z,100112.69
2022-10-31T12:58:23.004Z,100111.75
2022-10-31T13:00:59.893Z,100103.06
2022-10-31T13:03:35.228Z,100080.16
2022-10-31T13:06:10.433Z,100097.34
2022-10-31T13:08:44.216Z,100082.50
2022-10-31T13:11:21.653Z,100086.75
2022-10-31T13:13:57.535Z,100083.13
2022-10-31T13:16:31.984Z,100067.22
2022-10-31T13:19:02.978Z,100071.44
2022-10-31T13:21:40.572Z,100066.16
2022-10-31T13:24:16.082Z,100074.00
2022-10-31T13:26:51.778Z,100076.16
2022-10-31T13:29:41.824Z,100088.94
2022-10-31T13:32:09.430Z,100079.09
2022-10-31T13:34:49.326Z,100065.59
2022-10-31T13:37:16.277Z,100060.31
2022-10-31T13:39:51.066Z,100046.44
2022-10-31T13:42:54.119Z,100038.28
2022-10-31T13:45:24.523Z,100036.44
2022-10-31T13:48:26.166Z,100022.25
2022-10-31T13:51:00.992Z,100022.25
2022-10-31T13:53:44.210Z,100022.38
2022-10-31T13:56:14.354Z,100025.84
2022-10-31T13:58:55.931Z,100016.94
2022-10-31T14:01:24.087Z,100008.06
2022-10-31T14:04:13.906Z,100002.00
2022-10-31T14:06:58.569Z,99998.53
2022-10-31T14:09:52.147Z,100001.03
2022-10-31T14:12:33.145Z,99991.28
2022-10-31T14:15:05.130Z,99969.97
2022-10-31T14:17:42.078Z,99981.53
2022-10-31T14:20:12.157Z,99969.47
2022-10-31T14:22:42.775Z,99968.06
2022-10-31T14:25:36.607Z,99960.13
2022-10-31T14:28:34.404Z,99953.84
2022-10-31T14:31:02.863Z,99968.06
2022-10-31T14:33:32.435Z,99971.22
2022-10-31T14:36:15.979Z,99976.28
2022-10-31T14:38:57.614Z,99982.44
2022-10-31T14:41:50.763Z,99981.69
2022-10-31T14:44:43.237Z,99997.38
2022-10-31T14:47:13.112Z,99997.25
2022-10-31T14:49:58.475Z,100004.16
2022-10-31T14:52:25.855Z,99994.38
2022-10-31T14:54:56.271Z,99989.94
2022-10-31T14:57:48.387Z,100001.63
2022-10-31T15:00:21.661Z,100006.91
2022-10-31T15:02:53.294Z,100001.50
2022-10-31T15:05:21.451Z,100010.94
2022-10-31T15:07:59.100Z,100007.34
2022-10-31T15:10:33.578Z,100008.16
2022-10-31T15:13:22.807Z,100030.00
2022-10-31T15:15:53.475Z,100020.97
2022-10-31T15:18:27.768Z,100028.78
2022-10-31T15:20:57.187Z,100022.16
2022-10-31T15:23:30.209Z,100029.66
2022-10-31T15:26:06.214Z,100032.06
2022-10-31T15:28:33.263Z,100029.34
2022-10-31T15:31:02.707Z,100027.28
2022-10-31T15:33:38.331Z,100021.03
2022-10-31T15:36:07.628Z,100011.16
2022-10-31T15:38:34.696Z,100010.59
2022-10-31T15:41:04.206Z,100013.75
2022-10-31T15:43:38.065Z,100001.34
2022-10-31T15:46:08.600Z,100008.63
2022-10-31T15:48:36.543Z,100004.75
2022-10-31T15:51:04.067Z,100014.19
2022-10-31T15:53:39.658Z,100012.97
2022-10-31T15:56:14.203Z,100012.75
2022-10-31T15:58:45.825Z,100008.94
2022-10-31T16:01:24.744Z,100001.44
2022-10-31T16:04:20.988Z,100002.03
2022-10-31T16:07:14.696Z,100008.59
2022-10-31T16:09:53.583Z,100011.75
2022-10-31T16:12:22.741Z,100013.19
2022-10-31T16:14:55.207Z,100010.91
2022-10-31T16:17:28.488Z,100009.69
2022-10-31T16:20:04.846Z,100008.50
2022-10-31T16:22:37.967Z,100008.28
2022-10-31T16:25:39.382Z,100010.44
2022-10-31T16:31:02.179Z,99998.25
2022-10-31T16:33:34.855Z,99998.88
2022-10-31T16:36:22.710Z,99994.16
2022-10-31T16:38:52.017Z,100000.81
2022-10-31T16:41:19.137Z,100001.78
2022-10-31T16:43:51.477Z,99998.16
2022-10-31T16:46:25.185Z,100008.53
2022-10-31T16:48:52.866Z,100005.28
2022-10-31T16:51:19.853Z,100014.09
2022-10-31T16:53:47.116Z,100022.91
2022-10-31T16:56:29.549Z,100024.13
2022-10-31T16:58:57.173Z,100021.59
2022-10-31T17:01:24.384Z,100027.38
2022-10-31T17:03:51.440Z,100020.16
2022-10-31T17:06:18.434Z,100017.13
2022-10-31T17:08:45.548Z,100023.88
2022-10-31T17:11:18.799Z,100034.88
2022-10-31T17:13:45.870Z,100028.47
2022-10-31T17:16:15.494Z,100022.91
2022-10-31T17:18:44.171Z,100025.19
2022-10-31T17:21:20.506Z,100030.50
2022-10-31T17:23:47.721Z,100032.06
2022-10-31T17:26:14.789Z,100030.88
2022-10-31T17:28:43.177Z,100021.81
2022-10-31T17:31:27.535Z,100020.56
2022-10-31T17:34:02.191Z,100024.06
2022-10-31T17:36:31.168Z,100023.13
2022-10-31T17:38:58.527Z,100022.03
2022-10-31T17:41:25.558Z,100016.72
2022-10-31T17:44:00.691Z,100023.59
2022-10-31T17:46:29.042Z,100030.09
2022-10-31T17:48:56.286Z,100035.56
2022-10-31T17:51:23.620Z,100039.16
2022-10-31T17:53:50.902Z,100039.78
2022-10-31T17:56:17.898Z,100019.63
2022-10-31T17:58:45.049Z,100043.25
2022-10-31T18:01:17.019Z,100040.47
2022-10-31T18:03:44.841Z,100046.66
2022-10-31T18:06:14.753Z,100049.06
2022-10-31T18:08:42.253Z,100055.81
2022-10-31T18:11:15.097Z,100049.78
2022-10-31T18:16:13.509Z,100053.38
2022-10-31T18:18:41.465Z,100056.75
2022-10-31T18:21:09.234Z,100054.59
2022-10-31T18:23:36.390Z,100058.69
2022-10-31T18:26:04.271Z,100059.66
2022-10-31T18:28:31.312Z,100058.81
2022-10-31T18:31:01.660Z,100053.25
2022-10-31T18:33:29.208Z,100040.69
2022-10-31T18:35:56.712Z,100041.50
2022-10-31T18:38:23.973Z,100035.59
2022-10-31T18:40:52.202Z,100031.84
2022-10-31T18:43:19.288Z,100043.84
2022-10-31T18:45:48.788Z,100046.72
2022-10-31T18:48:18.753Z,100050.47
2022-10-31T18:50:46.435Z,100042.97
2022-10-31T18:53:13.376Z,100051.22
2022-10-31T18:55:45.389Z,100051.34
2022-10-31T18:58:16.811Z,100045.78
2022-10-31T19:00:43.858Z,100049.66
2022-10-31T19:03:10.931Z,100045.41
2022-10-31T19:05:38.743Z,100038.91
2022-10-31T19:08:09.072Z,100040.94
2022-10-31T19:10:40.642Z,100027.78
2022-10-31T19:13:08.207Z,100023.28
2022-10-31T19:15:36.120Z,100015.19
2022-10-31T19:18:04.923Z,100003.22
2022-10-31T19:20:32.394Z,100005.50
2022-10-31T19:22:59.917Z,100001.88
2022-10-31T19:25:28.161Z,99996.25
2022-10-31T19:27:55.580Z,99991.47
2022-10-31T19:30:24.184Z,99994.84
2022-10-31T19:32:56.401Z,99985.88
2022-10-31T19:35:23.934Z,99998.91
2022-10-31T19:37:51.536Z,100002.31
2022-10-31T19:40:20.323Z,99994.44
2022-10-31T19:42:47.682Z,99975.38
2022-10-31T19:45:15.253Z,99979.59
2022-10-31T19:47:43.284Z,99984.66
2022-10-31T19:50:12.238Z,99974.59
2022-10-31T19:52:43.671Z,99963.38
2022-10-31T19:55:12.985Z,99961.66
2022-10-31T19:58:00.807Z,99956.59
2022-10-31T20:00:29.692Z,99946.69
2022-10-31T20:02:57.205Z,99932.38
2022-10-31T20:05:24.873Z,99935.91
2022-10-31T20:07:54.662Z,99940.53
2022-10-31T20:10:22.849Z,99940.78
2022-10-31T20:12:51.489Z,99946.22
2022-10-31T20:15:19.892Z,99935.91
2022-10-31T20:17:47.358Z,99932.41
2022-10-31T20:20:16.390Z,99930.59
2022-10-31T20:22:43.840Z,99930.38
2022-10-31T20:25:14.741Z,99921.53
2022-10-31T20:27:42.040Z,99923.72
2022-10-31T20:30:12.225Z,99928.47
2022-10-31T20:32:49.012Z,99932.34
2022-10-31T20:35:20.790Z,99930.53
2022-10-31T20:37:53.494Z,99933.06
2022-10-31T20:40:21.004Z,99902.44
2022-10-31T20:42:48.266Z,99907.28
2022-10-31T20:45:20.269Z,99916.97
2022-10-31T20:47:47.482Z,99922.41
2022-10-31T20:50:16.703Z,99919.47
2022-10-31T20:52:45.288Z,99908.69
2022-10-31T20:55:16.622Z,99889.63
2022-10-31T20:57:44.005Z,99878.00
2022-10-31T21:00:12.473Z,99886.00
2022-10-31T21:02:45.316Z,99895.78
2022-10-31T21:05:16.102Z,99884.28
2022-10-31T21:07:55.659Z,99893.03
2022-10-31T21:10:23.879Z,99900.16
2022-10-31T21:12:56.701Z,99900.25
2022-10-31T21:15:24.923Z,99902.06
2022-10-31T21:17:52.594Z,99895.91
2022-10-31T21:20:20.153Z,99896.16
2022-10-31T21:22:48.561Z,99891.78
2022-10-31T21:25:17.422Z,99900.44
2022-10-31T21:27:47.498Z,99901.53
2022-10-31T21:30:16.922Z,99900.13
2022-10-31T21:32:44.540Z,99890.22
2022-10-31T21:35:11.923Z,99890.22
2022-10-31T21:37:39.392Z,99880.56
2022-10-31T21:40:08.360Z,99878.88
2022-10-31T21:42:37.306Z,99870.16
2022-10-31T21:45:06.875Z,99867.78
2022-10-31T21:47:34.367Z,99858.25
2022-10-31T21:50:06.245Z,99850.97
2022-10-31T21:52:33.713Z,99850.84
2022-10-31T21:55:01.960Z,99846.50
2022-10-31T21:57:30.023Z,99847.03
2022-10-31T21:59:57.320Z,99835.94
2022-10-31T22:02:24.574Z,99828.59
2022-10-31T22:04:52.304Z,99811.84
2022-10-31T22:07:20.747Z,99825.28
2022-10-31T22:09:49.952Z,99811.50
2022-10-31T22:12:19.766Z,99810.94
2022-10-31T22:14:49.949Z,99801.91
2022-10-31T22:17:22.597Z,99808.06
2022-10-31T22:19:49.968Z,99792.75
2022-10-31T22:22:17.086Z,99789.25
2022-10-31T22:24:48.147Z,99788.41
2022-10-31T22:27:15.330Z,99789.59
2022-10-31T22:29:42.296Z,99774.72
2022-10-31T22:32:10.295Z,99779.31
2022-10-31T22:34:38.765Z,99758.47
2022-10-31T22:37:06.654Z,99746.28
2022-10-31T22:39:36.425Z,99746.53
2022-10-31T22:42:04.123Z,99729.03
2022-10-31T22:44:31.338Z,99725.78
2022-10-31T22:46:58.592Z,99703.38
2022-10-31T22:49:25.584Z,99706.72
2022-10-31T22:51:52.640Z,99697.22
2022-10-31T22:54:20.084Z,99702.66
2022-10-31T22:56:47.094Z,99705.56
2022-10-31T22:59:15.716Z,99690.59
2022-10-31T23:01:46.038Z,99701.59
2022-10-31T23:04:16.611Z,99694.59
2022-10-31T23:06:45.184Z,99701.84
2022-10-31T23:09:15.185Z,99698.47
2022-10-31T23:11:42.306Z,99698.59
2022-10-31T23:14:18.944Z,99688.97
2022-10-31T23:16:55.770Z,99691.38
2022-10-31T23:19:30.436Z,99698.38
2022-10-31T23:22:03.355Z,99693.06
2022-10-31T23:24:37.898Z,99688.84
2022-10-31T23:27:10.239Z,99679.31
2022-10-31T23:29:47.736Z,99679.56
2022-10-31T23:32:21.131Z,99676.19
2022-10-31T23:34:49.945Z,99670.44
2022-10-31T23:37:18.552Z,99672.22
2022-10-31T23:39:45.850Z,99665.50
2022-10-31T23:42:14.145Z,99677.06
2022-10-31T23:44:41.048Z,99685.28
2022-10-31T23:47:08.681Z,99681.66
2022-10-31T23:49:35.858Z,99677.44
2022-10-31T23:52:03.930Z,99677.69
2022-10-31T23:54:31.338Z,99668.19
2022-10-31T23:56:59.111Z,99665.66
2022-10-31T23:59:26.526Z,99663.97
